sensor_id;sensor_type;location;lat;lon;timestamp;pressure;altitude;pressure_sealevel;temperature;humidity
61786;BME280;47692;53.714;11.372;2023-04-26T00:01:05;100716.31;;;2.18;100.00
61786;BME280;47692;53.714;11.372;2023-04-26T00:03:31;100718.06;;;2.22;100.00
61786;BME280;47692;53.714;11.372;2023-04-26T00:05:58;100709.41;;;2.14;100.00
61786;BME280;47692;53.714;11.372;2023-04-26T00:08:28;100713.72;;;2.17;100.00
61786;BME280;47692;53.714;11.372;2023-04-26T00:10:53;100711.94;;;2.13;100.00
61786;BME280;47692;53.714;11.372;2023-04-26T00:13:18;100716.31;;;2.18;100.00
61786;BME280;47692;53.714;11.372;2023-04-26T00:15:43;100712.75;;;2.10;100.00
61786;BME280;47692;53.714;11.372;2023-04-26T00:18:09;100714.50;;;2.11;100.00
61786;BME280;47692;53.714;11.372;2023-04-26T00:20:34;100716.22;;;2.09;100.00
61786;BME280;47692;53.714;11.372;2023-04-26T00:22:59;100717.91;;;2.10;100.00
61786;BME280;47692;53.714;11.372;2023-04-26T00:25:25;100717.88;;;2.07;100.00
61786;BME280;47692;53.714;11.372;2023-04-26T00:27:51;100721.34;;;2.09;100.00
61786;BME280;47692;53.714;11.372;2023-04-26T00:30:16;100727.34;;;2.08;100.00
61786;BME280;47692;53.714;11.372;2023-04-26T00:32:41;100724.78;;;2.11;100.00
61786;BME280;47692;53.714;11.372;2023-04-26T00:35:07;100729.00;;;2.03;100.00
61786;BME280;47692;53.714;11.372;2023-04-26T00:37:33;100723.78;;;1.97;100.00
61786;BME280;47692;53.714;11.372;2023-04-26T00:39:58;100731.44;;;1.93;100.00
61786;BME280;47692;53.714;11.372;2023-04-26T00:42:25;100733.25;;;2.01;100.00
61786;BME280;47692;53.714;11.372;2023-04-26T00:44:51;100732.38;;;1.99;100.00
61786;BME280;47692;53.714;11.372;2023-04-26T00:47:19;100728.94;;;1.97;100.00
61786;BME280;47692;53.714;11.372;2023-04-26T00:49:44;100727.22;;;1.99;100.00
61786;BME280;47692;53.714;11.372;2023-04-26T00:52:10;100737.50;;;1.99;100.00
61786;BME280;47692;53.714;11.372;2023-04-26T00:54:35;100728.94;;;2.00;100.00
61786;BME280;47692;53.714;11.372;2023-04-26T00:57:01;100724.47;;;1.86;100.00
61786;BME280;47692;53.714;11.372;2023-04-26T00:59:26;100727.97;;;1.91;100.00
61786;BME280;47692;53.714;11.372;2023-04-26T01:01:52;100727.94;;;1.88;100.00
61786;BME280;47692;53.714;11.372;2023-04-26T01:04:17;100744.31;;;1.92;100.00
61786;BME280;47692;53.714;11.372;2023-04-26T01:06:43;100738.44;;;2.02;100.00
61786;BME280;47692;53.714;11.372;2023-04-26T01:09:08;100743.50;;;1.98;100.00
61786;BME280;47692;53.714;11.372;2023-04-26T01:11:35;100739.25;;;2.01;100.00
61786;BME280;47692;53.714;11.372;2023-04-26T01:14:02;100736.69;;;2.01;100.00
61786;BME280;47692;53.714;11.372;2023-04-26T01:16:29;100736.72;;;2.03;100.00
61786;BME280;47692;53.714;11.372;2023-04-26T01:18:54;100743.56;;;2.01;100.00
61786;BME280;47692;53.714;11.372;2023-04-26T01:21:21;100745.28;;;2.02;100.00
61786;BME280;47692;53.714;11.372;2023-04-26T01:23:48;100740.09;;;1.99;100.00
61786;BME280;47692;53.714;11.372;2023-04-26T01:26:14;100740.09;;;1.99;100.00
61786;BME280;47692;53.714;11.372;2023-04-26T01:28:39;100740.09;;;1.97;100.00
61786;BME280;47692;53.714;11.372;2023-04-26T01:31:05;100752.09;;;1.97;100.00
61786;BME280;47692;53.714;11.372;2023-04-26T01:33:30;100746.88;;;1.92;100.00
61786;BME280;47692;53.714;11.372;2023-04-26T01:35:56;100747.81;;;1.97;100.00
61786;BME280;47692;53.714;11.372;2023-04-26T01:38:21;100749.38;;;1.86;100.00
61786;BME280;47692;53.714;11.372;2023-04-26T01:40:46;100744.13;;;1.78;100.00
61786;BME280;47692;53.714;11.372;2023-04-26T01:43:12;100755.28;;;1.77;100.00
61786;BME280;47692;53.714;11.372;2023-04-26T01:45:37;100757.03;;;1.81;100.00
61786;BME280;47692;53.714;11.372;2023-04-26T01:48:02;100750.97;;;1.77;100.00
61786;BME280;47692;53.714;11.372;2023-04-26T01:50:28;100749.31;;;1.83;100.00
61786;BME280;47692;53.714;11.372;2023-04-26T01:52:53;100744.91;;;1.74;100.00
61786;BME280;47692;53.714;11.372;2023-04-26T01:55:18;100757.03;;;1.81;100.00
61786;BME280;47692;53.714;11.372;2023-04-26T01:57:43;100751.78;;;1.75;100.00
61786;BME280;47692;53.714;11.372;2023-04-26T02:00:09;100759.53;;;1.76;100.00
61786;BME280;47692;53.714;11.372;2023-04-26T02:02:35;100750.94;;;1.73;100.00
61786;BME280;47692;53.714;11.372;2023-04-26T02:05:00;100756.94;;;1.75;100.00
61786;BME280;47692;53.714;11.372;2023-04-26T02:07:26;100753.44;;;1.70;100.00
61786;BME280;47692;53.714;11.372;2023-04-26T02:09:51;100758.59;;;1.70;100.00
61786;BME280;47692;53.714;11.372;2023-04-26T02:12:16;100760.31;;;1.71;100.00
61786;BME280;47692;53.714;11.372;2023-04-26T02:14:41;100759.44;;;1.69;100.00
61786;BME280;47692;53.714;11.372;2023-04-26T02:17:07;100759.34;;;1.63;100.00
61786;BME280;47692;53.714;11.372;2023-04-26T02:19:33;100761.06;;;1.64;100.00
61786;BME280;47692;53.714;11.372;2023-04-26T02:21:58;100753.25;;;1.54;100.00
61786;BME280;47692;53.714;11.372;2023-04-26T02:24:24;100752.34;;;1.54;100.00
61786;BME280;47692;53.714;11.372;2023-04-26T02:26:50;100758.38;;;1.54;100.00
61786;BME280;47692;53.714;11.372;2023-04-26T02:29:16;100759.22;;;1.52;100.00
61786;BME280;47692;53.714;11.372;2023-04-26T02:31:41;100754.84;;;1.49;100.00
61786;BME280;47692;53.714;11.372;2023-04-26T02:34:07;100757.41;;;1.46;100.00
61786;BME280;47692;53.714;11.372;2023-04-26T02:36:32;100760.81;;;1.47;100.00
61786;BME280;47692;53.714;11.372;2023-04-26T02:38:58;100750.50;;;1.43;100.00
61786;BME280;47692;53.714;11.372;2023-04-26T02:41:23;100753.06;;;1.42;100.00
61786;BME280;47692;53.714;11.372;2023-04-26T02:43:49;100759.06;;;1.42;100.00
61786;BME280;47692;53.714;11.372;2023-04-26T02:46:15;100760.88;;;1.50;100.00
61786;BME280;47692;53.714;11.372;2023-04-26T02:48:40;100759.13;;;1.47;100.00
61786;BME280;47692;53.714;11.372;2023-04-26T02:51:05;100764.19;;;1.41;100.00
61786;BME280;47692;53.714;11.372;2023-04-26T02:53:31;100765.88;;;1.40;100.00
61786;BME280;47692;53.714;11.372;2023-04-26T02:55:56;100768.50;;;1.42;100.00
61786;BME280;47692;53.714;11.372;2023-04-26T02:58:21;100765.09;;;1.46;100.00
61786;BME280;47692;53.714;11.372;2023-04-26T03:00:47;100765.03;;;1.43;100.00
61786;BME280;47692;53.714;11.372;2023-04-26T03:03:13;100772.72;;;1.38;100.00
61786;BME280;47692;53.714;11.372;2023-04-26T03:05:38;100771.00;;;1.39;100.00
61786;BME280;47692;53.714;11.372;2023-04-26T03:08:03;100769.25;;;1.38;100.00
61786;BME280;47692;53.714;11.372;2023-04-26T03:10:30;100766.63;;;1.33;100.00
61786;BME280;47692;53.714;11.372;2023-04-26T03:12:55;100770.16;;;1.38;100.00
61786;BME280;47692;53.714;11.372;2023-04-26T03:15:21;100764.84;;;1.29;100.00
61786;BME280;47692;53.714;11.372;2023-04-26T03:17:46;100764.00;;;1.32;100.00
61786;BME280;47692;53.714;11.372;2023-04-26T03:20:11;100770.03;;;1.32;100.00
61786;BME280;47692;53.714;11.372;2023-04-26T03:22:37;100758.03;;;1.33;100.00
61786;BME280;47692;53.714;11.372;2023-04-26T03:25:03;100769.22;;;1.35;100.00
61786;BME280;47692;53.714;11.372;2023-04-26T03:27:29;100771.63;;;1.25;100.00
61786;BME280;47692;53.714;11.372;2023-04-26T03:29:54;100763.06;;;1.23;100.00
61786;BME280;47692;53.714;11.372;2023-04-26T03:32:20;100762.97;;;1.20;100.00
61786;BME280;47692;53.714;11.372;2023-04-26T03:34:45;100762.22;;;1.26;100.00
61786;BME280;47692;53.714;11.372;2023-04-26T03:37:13;100763.91;;;1.25;100.00
61786;BME280;47692;53.714;11.372;2023-04-26T03:39:38;100767.28;;;1.21;100.00
61786;BME280;47692;53.714;11.372;2023-04-26T03:42:03;100763.97;;;1.27;100.00
61786;BME280;47692;53.714;11.372;2023-04-26T03:44:29;100769.13;;;1.27;100.00
61786;BME280;47692;53.714;11.372;2023-04-26T03:46:54;100768.19;;;1.23;100.00
61786;BME280;47692;53.714;11.372;2023-04-26T03:49:20;100770.81;;;1.26;100.00
61786;BME280;47692;53.714;11.372;2023-04-26T03:51:46;100773.28;;;1.20;100.00
61786;BME280;47692;53.714;11.372;2023-04-26T03:54:11;100778.38;;;1.17;100.00
61786;BME280;47692;53.714;11.372;2023-04-26T03:56:36;100775.00;;;1.21;100.00
61786;BME280;47692;53.714;11.372;2023-04-26T03:59:03;100772.41;;;1.18;100.00
61786;BME280;47692;53.714;11.372;2023-04-26T04:01:28;100785.19;;;1.15;100.00
61786;BME280;47692;53.714;11.372;2023-04-26T04:03:53;100782.53;;;1.10;100.00
61786;BME280;47692;53.714;11.372;2023-04-26T04:06:19;100785.09;;;1.09;100.00
61786;BME280;47692;53.714;11.372;2023-04-26T04:08:44;100786.81;;;1.10;100.00
61786;BME280;47692;53.714;11.372;2023-04-26T04:11:09;100782.50;;;1.07;100.00
61786;BME280;47692;53.714;11.372;2023-04-26T04:13:35;100787.66;;;1.09;100.00
61786;BME280;47692;53.714;11.372;2023-04-26T04:16:00;100790.28;;;1.12;100.00
61786;BME280;47692;53.714;11.372;2023-04-26T04:18:25;100790.34;;;1.15;100.00
61786;BME280;47692;53.714;11.372;2023-04-26T04:20:51;100788.66;;;1.17;100.00
61786;BME280;47692;53.714;11.372;2023-04-26T04:23:16;100799.09;;;1.26;100.00
61786;BME280;47692;53.714;11.372;2023-04-26T04:25:41;100797.34;;;1.25;100.00
61786;BME280;47692;53.714;11.372;2023-04-26T04:28:08;100798.13;;;1.18;100.00
61786;BME280;47692;53.714;11.372;2023-04-26T04:30:33;100803.28;;;1.20;100.00
61786;BME280;47692;53.714;11.372;2023-04-26T04:32:58;100803.28;;;1.20;100.00
61786;BME280;47692;53.714;11.372;2023-04-26T04:35:24;100812.84;;;1.28;100.00
61786;BME280;47692;53.714;11.372;2023-04-26T04:37:56;100806.91;;;1.31;100.00
61786;BME280;47692;53.714;11.372;2023-04-26T04:40:22;100816.34;;;1.31;100.00
61786;BME280;47692;53.714;11.372;2023-04-26T04:42:48;100808.75;;;1.40;100.00
61786;BME280;47692;53.714;11.372;2023-04-26T04:45:14;100811.22;;;1.34;100.00
61786;BME280;47692;53.714;11.372;2023-04-26T04:47:39;100811.25;;;1.37;100.00
61786;BME280;47692;53.714;11.372;2023-04-26T04:50:06;100809.66;;;1.42;100.00
61786;BME280;47692;53.714;11.372;2023-04-26T04:52:31;100814.84;;;1.45;100.00
61786;BME280;47692;53.714;11.372;2023-04-26T04:54:57;100811.47;;;1.49;100.00
61786;BME280;47692;53.714;11.372;2023-04-26T04:57:23;100820.91;;;1.49;100.00
61786;BME280;47692;53.714;11.372;2023-04-26T04:59:48;100822.66;;;1.53;100.00
61786;BME280;47692;53.714;11.372;2023-04-26T05:02:13;100816.78;;;1.58;100.00
61786;BME280;47692;53.714;11.372;2023-04-26T05:04:39;100815.94;;;1.61;100.00
61786;BME280;47692;53.714;11.372;2023-04-26T05:07:04;100822.91;;;1.67;100.00
61786;BME280;47692;53.714;11.372;2023-04-26T05:09:30;100817.78;;;1.70;100.00
61786;BME280;47692;53.714;11.372;2023-04-26T05:11:56;100822.19;;;1.77;100.00
61786;BME280;47692;53.714;11.372;2023-04-26T05:14:21;100827.44;;;1.83;100.00
61786;BME280;47692;53.714;11.372;2023-04-26T05:16:47;100822.38;;;1.89;100.00
61786;BME280;47692;53.714;11.372;2023-04-26T05:19:12;100819.06;;;1.97;100.00
61786;BME280;47692;53.714;11.372;2023-04-26T05:21:38;100820.81;;;2.01;100.00
61786;BME280;47692;53.714;11.372;2023-04-26T05:24:03;100822.59;;;2.05;100.00
61786;BME280;47692;53.714;11.372;2023-04-26T05:26:28;100826.16;;;2.13;100.00
61786;BME280;47692;53.714;11.372;2023-04-26T05:28:54;100835.72;;;2.23;100.00
61786;BME280;47692;53.714;11.372;2023-04-26T05:31:20;100840.09;;;2.28;100.00
61786;BME280;47692;53.714;11.372;2023-04-26T05:33:45;100832.38;;;2.31;100.00
61786;BME280;47692;53.714;11.372;2023-04-26T05:36:11;100836.78;;;2.38;100.00
61786;BME280;47692;53.714;11.372;2023-04-26T05:38:36;100841.19;;;2.48;100.00
61786;BME280;47692;53.714;11.372;2023-04-26T05:41:02;100845.59;;;2.55;100.00
61786;BME280;47692;53.714;11.372;2023-04-26T05:43:27;100842.31;;;2.69;100.00
61786;BME280;47692;53.714;11.372;2023-04-26T05:45:54;100850.97;;;2.74;100.00
61786;BME280;47692;53.714;11.372;2023-04-26T05:48:21;100849.34;;;2.82;100.00
61786;BME280;47692;53.714;11.372;2023-04-26T05:50:47;100849.44;;;2.91;100.00
61786;BME280;47692;53.714;11.372;2023-04-26T05:53:12;100851.19;;;2.96;100.00
61786;BME280;47692;53.714;11.372;2023-04-26T05:55:37;100848.78;;;3.10;100.00
61786;BME280;47692;53.714;11.372;2023-04-26T05:58:03;100844.47;;;3.10;100.00
61786;BME280;47692;53.714;11.372;2023-04-26T06:00:29;100845.44;;;3.21;100.00
61786;BME280;47692;53.714;11.372;2023-04-26T06:02:54;100850.66;;;3.29;100.00
61786;BME280;47692;53.714;11.372;2023-04-26T06:05:20;100855.91;;;3.38;100.00
61786;BME280;47692;53.714;11.372;2023-04-26T06:07:45;100857.66;;;3.39;100.00
61786;BME280;47692;53.714;11.372;2023-04-26T06:10:11;100856.81;;;3.45;100.00
61786;BME280;47692;53.714;11.372;2023-04-26T06:12:37;100855.09;;;3.41;100.00
61786;BME280;47692;53.714;11.372;2023-04-26T06:15:03;100859.47;;;3.50;100.00
61786;BME280;47692;53.714;11.372;2023-04-26T06:17:29;100853.41;;;3.49;100.00
61786;BME280;47692;53.714;11.372;2023-04-26T06:19:54;100856.09;;;3.57;100.00
61786;BME280;47692;53.714;11.372;2023-04-26T06:22:20;100857.88;;;3.66;100.00
61786;BME280;47692;53.714;11.372;2023-04-26T06:24:45;100854.50;;;3.75;100.00
61786;BME280;47692;53.714;11.372;2023-04-26T06:27:10;100865.75;;;3.84;100.00
61786;BME280;47692;53.714;11.372;2023-04-26T06:29:36;100857.22;;;3.92;100.00
61786;BME280;47692;53.714;11.372;2023-04-26T06:32:01;100859.78;;;3.93;100.00
61786;BME280;47692;53.714;11.372;2023-04-26T06:34:26;100860.69;;;4.00;100.00
61786;BME280;47692;53.714;11.372;2023-04-26T06:36:52;100862.47;;;4.10;99.52
61786;BME280;47692;53.714;11.372;2023-04-26T06:39:17;100862.50;;;4.16;96.62
61786;BME280;47692;53.714;11.372;2023-04-26T06:41:43;100866.84;;;4.20;95.15
61786;BME280;47692;53.714;11.372;2023-04-26T06:44:08;100867.75;;;4.26;94.18
61786;BME280;47692;53.714;11.372;2023-04-26T06:46:33;100871.22;;;4.31;93.83
61786;BME280;47692;53.714;11.372;2023-04-26T06:49:00;100869.53;;;4.41;94.70
61786;BME280;47692;53.714;11.372;2023-04-26T06:51:25;100873.03;;;4.53;94.40
61786;BME280;47692;53.714;11.372;2023-04-26T06:53:51;100883.50;;;4.74;93.59
61786;BME280;47692;53.714;11.372;2023-04-26T06:56:16;100873.16;;;4.84;92.92
61786;BME280;47692;53.714;11.372;2023-04-26T06:59:00;100869.75;;;4.89;90.90
61786;BME280;47692;53.714;11.372;2023-04-26T07:01:27;100870.56;;;4.86;90.06
61786;BME280;47692;53.714;11.372;2023-04-26T07:03:56;100871.44;;;4.83;89.83
61786;BME280;47692;53.714;11.372;2023-04-26T07:06:22;100864.56;;;4.82;88.48
61786;BME280;47692;53.714;11.372;2023-04-26T07:08:48;100872.34;;;4.90;88.85
61786;BME280;47692;53.714;11.372;2023-04-26T07:11:13;100872.31;;;4.93;89.38
61786;BME280;47692;53.714;11.372;2023-04-26T07:13:38;100878.41;;;5.03;89.92
61786;BME280;47692;53.714;11.372;2023-04-26T07:16:04;100873.25;;;5.22;89.72
61786;BME280;47692;53.714;11.372;2023-04-26T07:18:29;100875.00;;;5.27;87.08
61786;BME280;47692;53.714;11.372;2023-04-26T07:20:55;100867.25;;;5.33;84.96
61786;BME280;47692;53.714;11.372;2023-04-26T07:23:20;100872.41;;;5.29;84.10
61786;BME280;47692;53.714;11.372;2023-04-26T07:25:46;100875.03;;;5.40;84.76
61786;BME280;47692;53.714;11.372;2023-04-26T07:28:11;100865.53;;;5.51;85.12
61786;BME280;47692;53.714;11.372;2023-04-26T07:30:36;100878.47;;;5.56;83.28
61786;BME280;47692;53.714;11.372;2023-04-26T07:33:02;100874.19;;;5.48;81.18
61786;BME280;47692;53.714;11.372;2023-04-26T07:35:27;100875.03;;;5.60;81.18
61786;BME280;47692;53.714;11.372;2023-04-26T07:37:52;100867.25;;;5.74;81.17
61786;BME280;47692;53.714;11.372;2023-04-26T07:40:18;100874.16;;;5.78;80.90
61786;BME280;47692;53.714;11.372;2023-04-26T07:42:44;100878.50;;;5.83;81.14
61786;BME280;47692;53.714;11.372;2023-04-26T07:45:10;100880.22;;;5.75;79.95
61786;BME280;47692;53.714;11.372;2023-04-26T07:47:35;100887.13;;;5.70;78.50
61786;BME280;47692;53.714;11.372;2023-04-26T07:50:01;100881.97;;;5.73;76.86
61786;BME280;47692;53.714;11.372;2023-04-26T07:52:26;100885.41;;;5.91;77.21
61786;BME280;47692;53.714;11.372;2023-04-26T07:54:51;100880.22;;;5.91;73.91
61786;BME280;47692;53.714;11.372;2023-04-26T07:57:17;100882.81;;;5.91;72.59
61786;BME280;47692;53.714;11.372;2023-04-26T07:59:42;100883.66;;;6.18;75.09
61786;BME280;47692;53.714;11.372;2023-04-26T08:02:07;100888.81;;;6.24;75.12
61786;BME280;47692;53.714;11.372;2023-04-26T08:04:33;100886.22;;;6.28;75.20
61786;BME280;47692;53.714;11.372;2023-04-26T08:06:59;100878.41;;;6.45;74.71
61786;BME280;47692;53.714;11.372;2023-04-26T08:09:27;100874.88;;;6.62;73.76
61786;BME280;47692;53.714;11.372;2023-04-26T08:11:52;100887.00;;;6.68;73.56
61786;BME280;47692;53.714;11.372;2023-04-26T08:14:18;100888.69;;;6.67;74.42
61786;BME280;47692;53.714;11.372;2023-04-26T08:16:43;100897.44;;;6.44;73.41
61786;BME280;47692;53.714;11.372;2023-04-26T08:19:08;100894.88;;;6.21;72.58
61786;BME280;47692;53.714;11.372;2023-04-26T08:21:34;100885.38;;;6.34;71.94
61786;BME280;47692;53.714;11.372;2023-04-26T08:23:59;100906.06;;;6.53;70.11
61786;BME280;47692;53.714;11.372;2023-04-26T08:26:24;100899.19;;;6.39;69.91
61786;BME280;47692;53.714;11.372;2023-04-26T08:28:49;100906.09;;;6.40;72.11
61786;BME280;47692;53.714;11.372;2023-04-26T08:31:15;100917.28;;;6.49;72.77
61786;BME280;47692;53.714;11.372;2023-04-26T08:33:40;100906.91;;;6.44;69.34
61786;BME280;47692;53.714;11.372;2023-04-26T08:36:06;100907.72;;;6.66;70.47
61786;BME280;47692;53.714;11.372;2023-04-26T08:38:32;100915.47;;;6.78;70.37
61786;BME280;47692;53.714;11.372;2023-04-26T08:41:01;100905.91;;;6.84;71.00
61786;BME280;47692;53.714;11.372;2023-04-26T08:43:29;100905.78;;;7.13;71.87
61786;BME280;47692;53.714;11.372;2023-04-26T08:45:54;100908.34;;;7.21;70.42
61786;BME280;47692;53.714;11.372;2023-04-26T08:48:20;100902.31;;;7.16;69.64
61786;BME280;47692;53.714;11.372;2023-04-26T08:50:46;100910.13;;;7.11;69.03
61786;BME280;47692;53.714;11.372;2023-04-26T08:53:16;100914.50;;;7.04;67.73
61786;BME280;47692;53.714;11.372;2023-04-26T08:55:49;100919.69;;;7.07;68.94
61786;BME280;47692;53.714;11.372;2023-04-26T08:58:15;100906.56;;;7.29;71.01
61786;BME280;47692;53.714;11.372;2023-04-26T09:00:42;100912.56;;;7.40;68.06
61786;BME280;47692;53.714;11.372;2023-04-26T09:03:09;100914.28;;;7.38;66.52
61786;BME280;47692;53.714;11.372;2023-04-26T09:05:35;100908.22;;;7.42;66.20
61786;BME280;47692;53.714;11.372;2023-04-26T09:08:01;100917.72;;;7.42;66.11
61786;BME280;47692;53.714;11.372;2023-04-26T09:10:29;100920.47;;;7.20;64.45
61786;BME280;47692;53.714;11.372;2023-04-26T09:12:56;100915.28;;;7.19;65.78
61786;BME280;47692;53.714;11.372;2023-04-26T09:15:24;100916.09;;;7.27;65.23
61786;BME280;47692;53.714;11.372;2023-04-26T09:17:50;100910.69;;;7.58;66.46
61786;BME280;47692;53.714;11.372;2023-04-26T09:20:23;100912.38;;;7.65;65.43
61786;BME280;47692;53.714;11.372;2023-04-26T09:22:50;100917.63;;;7.62;66.77
61786;BME280;47692;53.714;11.372;2023-04-26T09:25:17;100911.69;;;7.40;64.36
61786;BME280;47692;53.714;11.372;2023-04-26T09:27:44;100909.09;;;7.38;63.95
61786;BME280;47692;53.714;11.372;2023-04-26T09:30:16;100908.91;;;7.63;66.00
61786;BME280;47692;53.714;11.372;2023-04-26T09:32:54;100914.88;;;7.79;63.33
61786;BME280;47692;53.714;11.372;2023-04-26T09:35:38;100912.25;;;7.84;63.02
61786;BME280;47692;53.714;11.372;2023-04-26T09:38:06;100912.09;;;7.99;65.17
61786;BME280;47692;53.714;11.372;2023-04-26T09:40:36;100909.41;;;8.10;65.34
61786;BME280;47692;53.714;11.372;2023-04-26T09:43:05;100914.72;;;7.98;62.70
61786;BME280;47692;53.714;11.372;2023-04-26T09:45:42;100918.19;;;7.98;61.54
61786;BME280;47692;53.714;11.372;2023-04-26T09:48:28;100916.09;;;8.33;61.14
61786;BME280;47692;53.714;11.372;2023-04-26T09:51:08;100916.03;;;8.42;61.31
61786;BME280;47692;53.714;11.372;2023-04-26T09:56:14;100921.78;;;8.73;63.39
61786;BME280;47692;53.714;11.372;2023-04-26T09:58:55;100912.97;;;8.84;60.81
61786;BME280;47692;53.714;11.372;2023-04-26T10:01:27;100904.13;;;8.97;62.02
61786;BME280;47692;53.714;11.372;2023-04-26T10:03:55;100910.38;;;8.85;60.39
61786;BME280;47692;53.714;11.372;2023-04-26T10:06:21;100919.25;;;8.66;60.86
61786;BME280;47692;53.714;11.372;2023-04-26T10:08:47;100920.22;;;8.57;61.00
61786;BME280;47692;53.714;11.372;2023-04-26T10:11:12;100923.81;;;8.44;60.87
61786;BME280;47692;53.714;11.372;2023-04-26T10:13:39;100916.94;;;8.39;61.04
61786;BME280;47692;53.714;11.372;2023-04-26T10:16:06;100919.47;;;8.46;62.34
61786;BME280;47692;53.714;11.372;2023-04-26T10:18:31;100914.91;;;8.66;62.53
61786;BME280;47692;53.714;11.372;2023-04-26T10:21:06;100912.13;;;8.82;61.07
61786;BME280;47692;53.714;11.372;2023-04-26T10:23:34;100900.56;;;9.04;58.58
61786;BME280;47692;53.714;11.372;2023-04-26T10:26:00;100908.97;;;9.25;57.67
61786;BME280;47692;53.714;11.372;2023-04-26T10:31:12;100909.63;;;8.72;57.44
61786;BME280;47692;53.714;11.372;2023-04-26T10:33:37;100907.06;;;8.71;59.76
61786;BME280;47692;53.714;11.372;2023-04-26T10:36:08;100909.47;;;8.88;61.16
61786;BME280;47692;53.714;11.372;2023-04-26T10:41:38;100900.38;;;9.20;55.77
61786;BME280;47692;53.714;11.372;2023-04-26T10:44:38;100901.88;;;9.33;52.49
61786;BME280;47692;53.714;11.372;2023-04-26T10:47:06;100902.47;;;9.54;53.44
61786;BME280;47692;53.714;11.372;2023-04-26T10:49:45;100901.38;;;9.66;54.02
61786;BME280;47692;53.714;11.372;2023-04-26T10:52:15;100899.56;;;9.73;53.29
61786;BME280;47692;53.714;11.372;2023-04-26T10:54:59;100905.72;;;9.67;52.25
61786;BME280;47692;53.714;11.372;2023-04-26T10:57:45;100901.22;;;9.77;53.73
61786;BME280;47692;53.714;11.372;2023-04-26T11:00:18;100899.06;;;9.49;53.79
61786;BME280;47692;53.714;11.372;2023-04-26T11:08:06;100919.91;;;8.86;60.69
61786;BME280;47692;53.714;11.372;2023-04-26T11:10:33;100905.06;;;8.92;60.92
61786;BME280;47692;53.714;11.372;2023-04-26T11:13:00;100923.03;;;9.12;63.00
61786;BME280;47692;53.714;11.372;2023-04-26T11:15:25;100916.94;;;9.14;60.25
61786;BME280;47692;53.714;11.372;2023-04-26T11:17:50;100922.97;;;9.15;61.86
61786;BME280;47692;53.714;11.372;2023-04-26T11:20:16;100910.88;;;9.12;63.27
61786;BME280;47692;53.714;11.372;2023-04-26T11:22:41;100906.44;;;9.17;62.16
61786;BME280;47692;53.714;11.372;2023-04-26T11:25:06;100903.78;;;9.22;61.30
61786;BME280;47692;53.714;11.372;2023-04-26T11:27:33;100907.00;;;9.40;61.12
61786;BME280;47692;53.714;11.372;2023-04-26T11:30:02;100905.09;;;9.52;60.40
61786;BME280;47692;53.714;11.372;2023-04-26T11:32:28;100903.25;;;9.59;58.59
61786;BME280;47692;53.714;11.372;2023-04-26T11:34:53;100898.63;;;9.77;57.80
61786;BME280;47692;53.714;11.372;2023-04-26T11:37:19;100890.66;;;9.86;56.43
61786;BME280;47692;53.714;11.372;2023-04-26T11:39:44;100894.88;;;9.92;55.79
61786;BME280;47692;53.714;11.372;2023-04-26T11:42:10;100885.13;;;10.05;57.34
61786;BME280;47692;53.714;11.372;2023-04-26T11:44:37;100896.09;;;10.22;57.42
61786;BME280;47692;53.714;11.372;2023-04-26T11:47:04;100902.22;;;10.21;56.94
61786;BME280;47692;53.714;11.372;2023-04-26T11:49:35;100900.13;;;9.90;57.30
61786;BME280;47692;53.714;11.372;2023-04-26T11:52:02;100905.81;;;9.62;58.58
61786;BME280;47692;53.714;11.372;2023-04-26T11:54:32;100929.66;;;9.34;62.65
61786;BME280;47692;53.714;11.372;2023-04-26T11:56:58;100944.59;;;8.50;68.84
61786;BME280;47692;53.714;11.372;2023-04-26T11:59:25;100955.38;;;8.09;74.99
61786;BME280;47692;53.714;11.372;2023-04-26T12:01:50;100953.84;;;7.79;78.22
61786;BME280;47692;53.714;11.372;2023-04-26T12:04:19;100940.22;;;7.48;78.36
61786;BME280;47692;53.714;11.372;2023-04-26T12:06:50;100948.88;;;7.50;80.16
61786;BME280;47692;53.714;11.372;2023-04-26T12:09:22;100943.72;;;7.43;79.15
61786;BME280;47692;53.714;11.372;2023-04-26T12:11:58;100940.22;;;7.44;77.71
61786;BME280;47692;53.714;11.372;2023-04-26T12:14:50;100938.56;;;7.37;76.68
61786;BME280;47692;53.714;11.372;2023-04-26T12:17:15;100933.34;;;7.40;76.56
61786;BME280;47692;53.714;11.372;2023-04-26T12:19:40;100933.22;;;7.59;77.74
61786;BME280;47692;53.714;11.372;2023-04-26T12:22:06;100939.75;;;8.08;79.38
61786;BME280;47692;53.714;11.372;2023-04-26T12:24:33;100942.06;;;8.39;75.88
61786;BME280;47692;53.714;11.372;2023-04-26T12:27:01;100942.63;;;8.69;75.33
61786;BME280;47692;53.714;11.372;2023-04-26T12:29:27;100944.78;;;9.09;73.51
61786;BME280;47692;53.714;11.372;2023-04-26T12:31:55;100942.47;;;9.51;67.31
61786;BME280;47692;53.714;11.372;2023-04-26T12:34:20;100949.09;;;9.73;64.67
61786;BME280;47692;53.714;11.372;2023-04-26T12:36:45;100940.06;;;9.94;62.08
61786;BME280;47692;53.714;11.372;2023-04-26T12:39:11;100945.72;;;10.19;61.03
61786;BME280;47692;53.714;11.372;2023-04-26T12:41:39;100934.31;;;10.25;59.16
61786;BME280;47692;53.714;11.372;2023-04-26T12:44:05;100939.66;;;10.18;57.53
61786;BME280;47692;53.714;11.372;2023-04-26T12:46:31;100932.44;;;10.31;58.30
61786;BME280;47692;53.714;11.372;2023-04-26T12:48:56;100941.16;;;10.79;55.36
61786;BME280;47692;53.714;11.372;2023-04-26T12:51:21;100938.06;;;11.02;54.49
61786;BME280;47692;53.714;11.372;2023-04-26T12:53:46;100946.09;;;11.34;55.02
61786;BME280;47692;53.714;11.372;2023-04-26T12:56:12;100939.50;;;11.56;56.45